createdAt,value
2022-11-16T00:01:05.288Z,3.05
2022-11-16T00:03:32.224Z,2.83
2022-11-16T00:05:59.229Z,2.70
2022-11-16T00:08:25.869Z,2.72
2022-11-16T00:10:52.687Z,4.25
2022-11-16T00:13:19.207Z,2.90
2022-11-16T00:15:54.076Z,2.70
2022-11-16T00:18:20.461Z,2.05
2022-11-16T00:20:46.997Z,2.70
2022-11-16T00:23:13.373Z,2.20
2022-11-16T00:25:39.732Z,2.85
2022-11-16T00:28:06.100Z,2.60
2022-11-16T00:30:32.568Z,2.50
2022-11-16T00:33:02.430Z,2.40
2022-11-16T00:35:28.832Z,2.13
2022-11-16T00:37:55.270Z,2.50
2022-11-16T00:40:21.751Z,2.55
2022-11-16T00:42:49.033Z,1.85
2022-11-16T00:45:15.450Z,1.92
2022-11-16T00:47:41.791Z,1.90
2022-11-16T00:50:08.480Z,2.38
2022-11-16T00:52:34.852Z,2.13
2022-11-16T00:55:02.295Z,2.22
2022-11-16T00:57:28.821Z,1.70
2022-11-16T00:59:55.390Z,1.77
2022-11-16T01:02:22.780Z,1.90
2022-11-16T01:04:49.164Z,1.92
2022-11-16T01:07:15.541Z,2.10
2022-11-16T01:09:41.920Z,1.38
2022-11-16T01:12:09.304Z,1.70
2022-11-16T01:14:37.947Z,2.00
2022-11-16T01:17:05.378Z,1.63
2022-11-16T01:19:31.995Z,1.48
2022-11-16T01:21:58.452Z,1.60
2022-11-16T01:24:25.711Z,1.48
2022-11-16T01:26:52.197Z,2.03
2022-11-16T01:29:18.673Z,1.70
2022-11-16T01:31:51.791Z,2.05
2022-11-16T01:34:18.287Z,1.55
2022-11-16T01:36:45.075Z,1.40
2022-11-16T01:39:12.857Z,1.30
2022-11-16T01:41:45.294Z,1.90
2022-11-16T01:44:14.383Z,2.05
2022-11-16T01:46:52.218Z,2.10
2022-11-16T01:49:21.126Z,2.50
2022-11-16T01:51:55.302Z,1.60
2022-11-16T01:54:23.087Z,1.48
2022-11-16T01:57:02.146Z,1.40
2022-11-16T01:59:36.170Z,1.75
2022-11-16T02:02:04.005Z,1.60
2022-11-16T02:04:31.780Z,1.60
2022-11-16T02:07:05.215Z,1.65
2022-11-16T02:09:57.266Z,1.63
2022-11-16T02:12:34.424Z,2.45
2022-11-16T02:15:20.465Z,2.50
2022-11-16T02:17:59.893Z,2.92
2022-11-16T02:20:26.531Z,2.40
2022-11-16T02:23:12.539Z,2.95
2022-11-16T02:25:50.555Z,2.80
2022-11-16T02:28:43.331Z,2.65
2022-11-16T02:31:13.308Z,2.63
2022-11-16T02:33:41.306Z,2.80
2022-11-16T02:36:10.518Z,4.07
2022-11-16T02:38:39.301Z,3.78
2022-11-16T02:41:08.390Z,2.70
2022-11-16T02:43:38.401Z,3.85
2022-11-16T02:46:08.497Z,6.68
2022-11-16T02:48:37.135Z,8.80
2022-11-16T02:51:06.412Z,7.65
2022-11-16T02:53:36.845Z,4.50
2022-11-16T02:56:03.584Z,4.60
2022-11-16T02:58:30.029Z,2.90
2022-11-16T03:01:05.752Z,2.95
2022-11-16T03:03:43.540Z,4.70
2022-11-16T03:06:13.754Z,4.43
2022-11-16T03:08:50.334Z,4.00
2022-11-16T03:11:35.773Z,3.10
2022-11-16T03:14:07.871Z,4.03
2022-11-16T03:16:34.271Z,2.97
2022-11-16T03:19:02.443Z,3.65
2022-11-16T03:21:33.059Z,2.65
2022-11-16T03:24:01.351Z,3.28
2022-11-16T03:26:31.968Z,4.50
2022-11-16T03:29:01.988Z,6.72
2022-11-16T03:31:34.136Z,8.48
2022-11-16T03:34:04.555Z,5.78
2022-11-16T03:36:36.361Z,1.92
2022-11-16T03:39:08.272Z,1.70
2022-11-16T03:41:37.011Z,2.50
2022-11-16T03:44:04.829Z,1.50
2022-11-16T03:46:31.404Z,1.40
2022-11-16T03:48:59.382Z,1.65
2022-11-16T03:51:29.492Z,1.20
2022-11-16T03:53:56.634Z,1.45
2022-11-16T03:56:23.379Z,1.75
2022-11-16T03:58:49.817Z,1.45
2022-11-16T04:01:17.510Z,1.20
2022-11-16T04:03:45.437Z,0.90
2022-11-16T04:06:31.034Z,1.20
2022-11-16T04:09:15.808Z,1.58
2022-11-16T04:12:02.061Z,1.10
2022-11-16T04:14:47.763Z,1.00
2022-11-16T04:17:37.300Z,1.00
2022-11-16T04:20:23.174Z,0.82
2022-11-16T04:23:12.906Z,0.90
2022-11-16T04:25:40.271Z,0.90
2022-11-16T04:28:14.556Z,1.40
2022-11-16T04:31:22.584Z,0.70
2022-11-16T04:34:17.959Z,1.70
2022-11-16T04:37:08.103Z,0.80
2022-11-16T04:39:35.067Z,0.90
2022-11-16T04:42:17.157Z,0.77
2022-11-16T04:45:04.898Z,0.68
2022-11-16T04:47:37.569Z,0.77
2022-11-16T04:50:04.425Z,0.95
2022-11-16T04:52:31.678Z,1.00
2022-11-16T04:54:58.675Z,0.90
2022-11-16T04:57:25.651Z,0.82
2022-11-16T04:59:52.075Z,0.88
2022-11-16T05:02:19.278Z,1.10
2022-11-16T05:04:52.694Z,1.00
2022-11-16T05:07:20.406Z,1.30
2022-11-16T05:09:47.929Z,1.20
2022-11-16T05:12:19.577Z,1.08
2022-11-16T05:14:48.243Z,1.15
2022-11-16T05:17:16.593Z,1.50
2022-11-16T05:20:01.942Z,1.20
2022-11-16T05:22:32.973Z,1.40
2022-11-16T05:25:01.174Z,1.63
2022-11-16T05:27:28.397Z,1.70
2022-11-16T05:29:55.857Z,1.55
2022-11-16T05:32:24.318Z,1.50
2022-11-16T05:34:53.017Z,1.48
2022-11-16T05:37:21.124Z,1.70
2022-11-16T05:39:47.883Z,1.67
2022-11-16T05:42:15.000Z,1.80
2022-11-16T05:44:41.751Z,1.60
2022-11-16T05:47:09.253Z,1.73
2022-11-16T05:49:36.100Z,1.50
2022-11-16T05:52:03.309Z,1.83
2022-11-16T05:54:31.239Z,1.75
2022-11-16T05:56:57.790Z,1.58
2022-11-16T05:59:24.444Z,1.67
2022-11-16T06:01:54.108Z,2.08
2022-11-16T06:04:24.992Z,1.80
2022-11-16T06:06:53.677Z,2.10
2022-11-16T06:09:20.405Z,2.20
2022-11-16T06:11:48.946Z,1.50
2022-11-16T06:14:16.114Z,1.98
2022-11-16T06:16:43.336Z,2.10
2022-11-16T06:19:10.885Z,2.05
2022-11-16T06:21:37.512Z,2.00
2022-11-16T06:24:09.406Z,2.10
2022-11-16T06:26:37.019Z,1.80
2022-11-16T06:29:03.756Z,1.83
2022-11-16T06:31:30.869Z,2.38
2022-11-16T06:34:00.134Z,2.38
2022-11-16T06:36:28.400Z,2.30
2022-11-16T06:38:55.957Z,2.60
2022-11-16T06:41:23.290Z,2.05
2022-11-16T06:43:50.934Z,2.70
2022-11-16T06:46:20.577Z,2.25
2022-11-16T06:48:47.792Z,1.95
2022-11-16T06:51:14.296Z,2.30
2022-11-16T06:53:41.024Z,1.92
2022-11-16T06:56:07.619Z,2.10
2022-11-16T06:58:42.701Z,2.08
2022-11-16T07:01:11.776Z,2.17
2022-11-16T07:03:40.818Z,2.03
2022-11-16T07:06:09.555Z,2.17
2022-11-16T07:08:37.520Z,2.40
2022-11-16T07:11:05.161Z,1.85
2022-11-16T07:13:33.947Z,2.15
2022-11-16T07:16:01.227Z,3.13
2022-11-16T07:18:27.756Z,2.60
2022-11-16T07:20:54.551Z,2.75
2022-11-16T07:23:21.033Z,2.35
2022-11-16T07:25:48.193Z,2.33
2022-11-16T07:28:24.315Z,2.25
2022-11-16T07:30:50.903Z,2.00
2022-11-16T07:36:12.627Z,2.25
2022-11-16T07:38:39.547Z,2.38
2022-11-16T07:41:09.158Z,2.17
2022-11-16T07:43:39.796Z,2.50
2022-11-16T07:46:45.488Z,2.70
2022-11-16T07:49:11.382Z,2.10
2022-11-16T07:51:53.749Z,3.13
2022-11-16T07:54:46.253Z,2.40
2022-11-16T07:57:14.941Z,2.00
2022-11-16T07:59:42.457Z,2.15
2022-11-16T08:02:09.870Z,2.63
2022-11-16T08:04:38.801Z,2.60
2022-11-16T08:07:05.516Z,2.17
2022-11-16T08:09:39.403Z,2.35
2022-11-16T08:12:08.061Z,3.00
2022-11-16T08:14:34.962Z,2.72
2022-11-16T08:17:03.544Z,2.28
2022-11-16T08:19:30.443Z,1.80
2022-11-16T08:21:57.852Z,2.10
2022-11-16T08:24:28.129Z,2.28
2022-11-16T08:26:54.656Z,2.30
2022-11-16T08:29:21.094Z,2.60
2022-11-16T08:31:50.632Z,2.72
2022-11-16T08:34:19.703Z,2.17
2022-11-16T08:36:49.811Z,2.28
2022-11-16T08:39:18.349Z,2.72
2022-11-16T08:41:45.604Z,2.47
2022-11-16T08:44:12.616Z,2.35
2022-11-16T08:46:42.748Z,2.33
2022-11-16T08:49:21.561Z,2.50
2022-11-16T08:51:48.207Z,2.63
2022-11-16T08:54:14.705Z,2.88
2022-11-16T08:56:43.100Z,2.38
2022-11-16T08:59:10.382Z,2.40
2022-11-16T09:04:10.783Z,2.30
2022-11-16T09:06:37.355Z,3.03
2022-11-16T09:09:04.065Z,2.30
2022-11-16T09:11:30.725Z,2.80
2022-11-16T09:13:57.248Z,2.30
2022-11-16T09:16:24.369Z,2.50
2022-11-16T09:18:51.261Z,3.00
2022-11-16T09:21:21.934Z,1.92
2022-11-16T09:23:48.778Z,2.92
2022-11-16T09:26:16.476Z,2.28
2022-11-16T09:28:42.891Z,2.95
2022-11-16T09:31:10.207Z,2.55
2022-11-16T09:33:37.039Z,2.63
2022-11-16T09:36:07.130Z,2.20
2022-11-16T09:39:19.164Z,2.38
2022-11-16T09:41:30.628Z,2.20
2022-11-16T09:44:00.332Z,1.83
2022-11-16T09:46:29.322Z,1.52
2022-11-16T09:49:00.288Z,2.63
2022-11-16T09:51:29.495Z,2.15
2022-11-16T09:54:02.279Z,2.72
2022-11-16T09:56:31.360Z,2.75
2022-11-16T09:59:18.299Z,1.80
2022-11-16T10:01:48.201Z,2.17
2022-11-16T10:04:17.324Z,1.70
2022-11-16T10:06:52.823Z,1.98
2022-11-16T10:09:19.851Z,1.92
2022-11-16T10:11:51.636Z,1.88
2022-11-16T10:14:38.208Z,1.67
2022-11-16T10:17:17.360Z,2.22
2022-11-16T10:19:49.832Z,2.13
2022-11-16T10:22:28.603Z,2.00
2022-11-16T10:24:57.474Z,2.08
2022-11-16T10:27:27.595Z,1.95
2022-11-16T10:30:09.348Z,1.58
2022-11-16T10:32:38.716Z,1.83
2022-11-16T10:35:05.388Z,2.10
2022-11-16T10:37:33.063Z,2.05
2022-11-16T10:40:00.369Z,1.95
2022-11-16T10:42:30.985Z,1.80
2022-11-16T10:45:02.704Z,2.10
2022-11-16T10:47:44.778Z,1.80
2022-11-16T10:50:17.271Z,1.90
2022-11-16T10:52:43.815Z,1.75
2022-11-16T10:55:15.025Z,2.35
2022-11-16T10:57:55.647Z,2.17
2022-11-16T11:00:36.244Z,2.20
2022-11-16T11:03:02.793Z,1.70
2022-11-16T11:05:29.790Z,1.40
2022-11-16T11:08:03.743Z,1.70
2022-11-16T11:10:30.132Z,1.60
2022-11-16T11:13:04.928Z,2.13
2022-11-16T11:15:31.495Z,2.40
2022-11-16T11:18:16.787Z,2.00
2022-11-16T11:20:45.161Z,1.33
2022-11-16T11:23:17.295Z,2.75
2022-11-16T11:25:54.241Z,1.40
2022-11-16T11:28:20.605Z,1.13
2022-11-16T11:30:56.332Z,1.80
2022-11-16T11:33:23.820Z,2.45
2022-11-16T11:36:18.659Z,2.40
2022-11-16T11:39:14.626Z,1.52
2022-11-16T11:41:45.034Z,1.65
2022-11-16T11:44:18.319Z,2.15
2022-11-16T11:47:35.054Z,2.00
2022-11-16T11:49:40.166Z,1.50
2022-11-16T11:52:11.519Z,2.10
2022-11-16T11:54:45.658Z,1.63
2022-11-16T11:57:15.697Z,1.70
2022-11-16T11:59:42.218Z,1.85
2022-11-16T12:02:27.496Z,1.67
2022-11-16T12:04:56.981Z,1.92
2022-11-16T12:07:38.940Z,1.58
2022-11-16T12:10:21.314Z,1.90
2022-11-16T12:12:56.912Z,2.40
2022-11-16T12:15:31.841Z,4.53
2022-11-16T12:18:07.551Z,3.17
2022-11-16T12:20:33.925Z,1.90
2022-11-16T12:23:03.933Z,3.13
2022-11-16T12:25:41.930Z,2.45
2022-11-16T12:28:27.087Z,3.15
2022-11-16T12:31:00.310Z,2.17
2022-11-16T12:33:36.874Z,2.70
2022-11-16T12:36:06.654Z,2.35
2022-11-16T12:38:39.035Z,2.30
2022-11-16T12:41:35.222Z,3.33
2022-11-16T12:44:21.320Z,3.22
2022-11-16T12:46:59.954Z,2.85
2022-11-16T12:49:27.340Z,2.08
2022-11-16T12:52:09.060Z,2.65
2022-11-16T12:55:23.994Z,2.90
2022-11-16T12:57:53.502Z,2.65
2022-11-16T13:00:27.898Z,3.13
2022-11-16T13:02:58.652Z,3.53
2022-11-16T13:05:40.358Z,2.60
2022-11-16T13:08:25.628Z,1.50
2022-11-16T13:10:54.683Z,2.58
2022-11-16T13:13:36.490Z,2.67
2022-11-16T13:16:04.899Z,2.20
2022-11-16T13:18:32.960Z,2.05
2022-11-16T13:21:17.025Z,1.58
2022-11-16T13:26:32.073Z,1.90
2022-11-16T13:29:04.503Z,2.30
2022-11-16T13:31:53.968Z,1.70
2022-11-16T13:34:31.934Z,2.28
2022-11-16T13:36:58.392Z,1.83
2022-11-16T13:39:48.048Z,1.80
2022-11-16T13:42:14.454Z,1.80
2022-11-16T13:44:40.887Z,1.80
2022-11-16T13:47:17.154Z,2.10
2022-11-16T13:49:50.699Z,2.55
2022-11-16T13:52:23.715Z,2.05
2022-11-16T13:54:55.220Z,1.75
2022-11-16T13:57:32.550Z,2.58
2022-11-16T14:00:01.795Z,2.17
2022-11-16T14:02:38.562Z,1.80
2022-11-16T14:05:14.277Z,2.50
2022-11-16T14:07:47.013Z,2.40
2022-11-16T14:10:33.399Z,1.50
2022-11-16T14:13:00.271Z,2.13
2022-11-16T14:15:28.325Z,1.60
2022-11-16T14:17:57.613Z,1.50
2022-11-16T14:20:34.275Z,2.17
2022-11-16T14:23:11.233Z,2.63
2022-11-16T14:25:48.552Z,1.75
2022-11-16T14:28:22.660Z,1.73
2022-11-16T14:31:00.191Z,2.17
2022-11-16T14:33:34.161Z,2.50
2022-11-16T14:36:01.646Z,2.20
2022-11-16T14:38:33.107Z,2.67
2022-11-16T14:41:00.652Z,2.17
2022-11-16T14:43:33.623Z,2.47
2022-11-16T14:46:05.879Z,3.03
2022-11-16T14:48:32.522Z,3.20
2022-11-16T14:51:11.110Z,4.20
2022-11-16T14:53:39.417Z,3.00
2022-11-16T14:56:11.227Z,2.40
2022-11-16T14:58:38.027Z,2.45
2022-11-16T15:01:12.576Z,1.83
2022-11-16T15:03:42.176Z,4.57
2022-11-16T15:06:08.892Z,4.25
2022-11-16T15:08:38.477Z,2.40
2022-11-16T15:11:07.671Z,2.67
2022-11-16T15:13:35.553Z,2.08
2022-11-16T15:16:16.099Z,2.05
2022-11-16T15:18:55.359Z,2.00
2022-11-16T15:21:22.652Z,1.65
2022-11-16T15:24:15.484Z,2.35
2022-11-16T15:26:38.102Z,1.88
2022-11-16T15:29:04.497Z,1.77
2022-11-16T15:31:30.932Z,4.47
2022-11-16T15:33:57.322Z,9.50
2022-11-16T15:36:23.680Z,5.75
2022-11-16T15:38:51.257Z,5.18
2022-11-16T15:41:18.061Z,2.67
2022-11-16T15:44:11.720Z,2.17
2022-11-16T15:46:35.160Z,3.00
2022-11-16T15:49:01.726Z,3.25
2022-11-16T15:51:34.102Z,8.00
2022-11-16T15:54:19.379Z,3.20
2022-11-16T15:56:45.743Z,2.47
2022-11-16T15:59:32.449Z,3.22
2022-11-16T16:01:59.120Z,2.90
2022-11-16T16:04:25.865Z,6.45
2022-11-16T16:06:53.945Z,10.48
2022-11-16T16:09:23.419Z,7.72
2022-11-16T16:11:49.916Z,6.78
2022-11-16T16:14:24.361Z,4.60
2022-11-16T16:16:52.665Z,4.25
2022-11-16T16:19:26.215Z,24.15
2022-11-16T16:21:52.858Z,13.43
2022-11-16T16:24:34.083Z,5.07
2022-11-16T16:27:00.664Z,4.90
2022-11-16T16:29:28.107Z,3.80
2022-11-16T16:31:55.522Z,3.88
2022-11-16T16:34:21.921Z,3.15
2022-11-16T16:36:48.278Z,5.43
2022-11-16T16:39:14.613Z,3.20
2022-11-16T16:41:40.992Z,3.60
2022-11-16T16:44:13.398Z,3.75
2022-11-16T16:46:39.956Z,3.53
2022-11-16T16:49:07.880Z,2.95
2022-11-16T16:51:34.275Z,2.75
2022-11-16T16:54:00.634Z,3.67
2022-11-16T16:56:26.982Z,2.95
2022-11-16T16:58:54.112Z,2.30
2022-11-16T17:01:20.569Z,2.42
2022-11-16T17:03:47.167Z,2.38
2022-11-16T17:06:13.975Z,2.50
2022-11-16T17:08:40.346Z,2.45
2022-11-16T17:11:06.811Z,1.88
2022-11-16T17:13:33.433Z,2.30
2022-11-16T17:16:03.519Z,2.35
2022-11-16T17:18:29.900Z,2.50
2022-11-16T17:20:56.464Z,2.20
2022-11-16T17:23:22.933Z,3.05
2022-11-16T17:25:49.345Z,2.08
2022-11-16T17:28:15.713Z,1.90
2022-11-16T17:30:42.093Z,2.33
2022-11-16T17:33:08.463Z,2.30
2022-11-16T17:35:34.828Z,2.50
2022-11-16T17:38:01.231Z,3.85
2022-11-16T17:40:27.617Z,2.65
2022-11-16T17:42:54.011Z,2.83
2022-11-16T17:45:20.387Z,2.28
2022-11-16T17:47:46.978Z,2.00
2022-11-16T17:50:13.861Z,1.60
2022-11-16T17:52:40.252Z,2.30
2022-11-16T17:55:07.040Z,1.77
2022-11-16T17:57:33.423Z,1.98
2022-11-16T17:59:59.830Z,2.28
2022-11-16T18:02:26.289Z,2.75
2022-11-16T18:04:52.676Z,2.30
2022-11-16T18:07:19.164Z,2.17
2022-11-16T18:09:45.574Z,3.20
2022-11-16T18:12:11.957Z,2.75
2022-11-16T18:14:38.299Z,2.65
2022-11-16T18:17:04.642Z,3.20
2022-11-16T18:19:31.029Z,2.42
2022-11-16T18:21:57.403Z,2.60
2022-11-16T18:24:23.791Z,1.98
2022-11-16T18:26:50.141Z,2.30
2022-11-16T18:29:18.595Z,2.60
2022-11-16T18:31:45.179Z,2.55
2022-11-16T18:34:12.924Z,2.42
2022-11-16T18:36:39.328Z,2.75
2022-11-16T18:39:06.760Z,2.58
2022-11-16T18:41:33.159Z,2.70
2022-11-16T18:44:01.754Z,2.75
2022-11-16T18:46:31.896Z,2.22
2022-11-16T18:48:58.704Z,2.80
2022-11-16T18:51:26.920Z,2.78
2022-11-16T18:53:53.354Z,3.13
2022-11-16T18:56:20.180Z,2.50
2022-11-16T18:58:51.383Z,2.35
2022-11-16T19:01:20.018Z,2.22
2022-11-16T19:03:46.513Z,2.38
2022-11-16T19:06:14.767Z,2.58
2022-11-16T19:08:41.995Z,3.08
2022-11-16T19:11:09.824Z,2.67
2022-11-16T19:13:36.534Z,2.97
2022-11-16T19:16:03.342Z,3.33
2022-11-16T19:18:30.039Z,4.70
2022-11-16T19:21:09.550Z,3.25
2022-11-16T19:23:42.932Z,3.20
2022-11-16T19:26:09.453Z,2.80
2022-11-16T19:28:36.898Z,2.28
2022-11-16T19:31:16.680Z,2.65
2022-11-16T19:33:44.305Z,2.20
2022-11-16T19:36:12.131Z,1.63
2022-11-16T19:38:38.954Z,2.00
2022-11-16T19:41:06.082Z,2.22
2022-11-16T19:43:33.340Z,2.28
2022-11-16T19:46:03.902Z,2.97
2022-11-16T19:48:31.979Z,2.70
2022-11-16T19:51:09.183Z,2.40
2022-11-16T19:53:36.099Z,2.33
2022-11-16T19:56:03.601Z,2.10
2022-11-16T19:58:30.971Z,2.75
2022-11-16T20:01:25.313Z,2.90
2022-11-16T20:06:20.773Z,4.30
2022-11-16T20:08:48.864Z,3.45
2022-11-16T20:11:15.247Z,2.92
2022-11-16T20:13:42.469Z,2.40
2022-11-16T20:16:10.080Z,2.60
2022-11-16T20:18:37.072Z,1.83
2022-11-16T20:21:05.281Z,3.58
2022-11-16T20:23:34.294Z,3.22
2022-11-16T20:26:19.775Z,2.00
2022-11-16T20:28:46.434Z,2.55
2022-11-16T20:31:14.072Z,2.95
2022-11-16T20:33:40.871Z,2.22
2022-11-16T20:36:08.686Z,2.38
2022-11-16T20:38:35.662Z,2.47
2022-11-16T20:41:14.737Z,4.95
2022-11-16T20:43:42.023Z,3.17
2022-11-16T20:46:09.478Z,2.33
2022-11-16T20:48:36.460Z,2.58
2022-11-16T20:51:03.124Z,3.15
2022-11-16T20:53:29.514Z,1.85
2022-11-16T20:55:57.468Z,1.77
2022-11-16T20:58:24.182Z,2.33
2022-11-16T21:00:50.747Z,2.17
2022-11-16T21:03:17.247Z,1.85
2022-11-16T21:05:44.124Z,2.60
2022-11-16T21:08:11.251Z,2.45
2022-11-16T21:10:38.178Z,2.10
2022-11-16T21:13:25.397Z,2.42
2022-11-16T21:15:58.243Z,1.92
2022-11-16T21:18:30.386Z,2.17
2022-11-16T21:20:58.640Z,2.22
2022-11-16T21:23:25.659Z,2.22
2022-11-16T21:25:52.126Z,1.98
2022-11-16T21:28:24.196Z,1.42
2022-11-16T21:30:55.881Z,2.83
2022-11-16T21:33:22.501Z,2.75
2022-11-16T21:35:48.905Z,3.40
2022-11-16T21:38:15.247Z,2.38
2022-11-16T21:40:41.676Z,2.05
2022-11-16T21:43:08.056Z,1.50
2022-11-16T21:45:35.188Z,2.13
2022-11-16T21:48:01.547Z,2.10
2022-11-16T21:50:32.354Z,1.95
2022-11-16T21:53:00.069Z,1.88
2022-11-16T21:55:26.625Z,2.10
2022-11-16T21:57:52.990Z,1.80
2022-11-16T22:00:20.058Z,1.50
2022-11-16T22:02:46.417Z,2.05
2022-11-16T22:05:31.663Z,1.88
2022-11-16T22:08:03.045Z,2.03
2022-11-16T22:10:29.416Z,2.55
2022-11-16T22:12:55.742Z,2.50
2022-11-16T22:15:22.103Z,2.10
2022-11-16T22:17:48.464Z,1.95
2022-11-16T22:20:15.306Z,2.00
2022-11-16T22:22:41.731Z,2.22
2022-11-16T22:25:08.388Z,1.77
2022-11-16T22:27:52.118Z,1.70
2022-11-16T22:30:21.156Z,2.30
2022-11-16T22:32:47.691Z,2.00
2022-11-16T22:35:14.181Z,1.48
2022-11-16T22:37:40.715Z,2.30
2022-11-16T22:40:07.349Z,2.33
2022-11-16T22:42:33.731Z,2.00
2022-11-16T22:45:00.097Z,1.58
2022-11-16T22:47:26.452Z,1.50
2022-11-16T22:49:53.552Z,1.88
2022-11-16T22:52:19.945Z,1.23
2022-11-16T22:54:46.304Z,1.30
2022-11-16T22:57:12.674Z,1.25
2022-11-16T22:59:39.044Z,1.45
2022-11-16T23:02:05.815Z,1.73
2022-11-16T23:04:32.260Z,1.40
2022-11-16T23:06:58.676Z,1.30
2022-11-16T23:09:25.088Z,1.60
2022-11-16T23:12:10.135Z,1.50
2022-11-16T23:14:55.386Z,1.60
2022-11-16T23:17:21.876Z,1.50
2022-11-16T23:20:06.955Z,1.90
2022-11-16T23:22:51.719Z,1.90
2022-11-16T23:25:36.924Z,1.20
2022-11-16T23:28:07.708Z,1.55
2022-11-16T23:30:34.849Z,1.40
2022-11-16T23:33:01.483Z,1.75
2022-11-16T23:35:27.857Z,1.40
2022-11-16T23:37:55.826Z,1.50
2022-11-16T23:40:23.425Z,1.70
2022-11-16T23:43:09.794Z,2.10
2022-11-16T23:45:36.181Z,1.05
2022-11-16T23:48:02.587Z,1.20
2022-11-16T23:50:29.050Z,1.33
2022-11-16T23:52:55.423Z,1.27
2022-11-16T23:55:23.058Z,1.80
2022-11-16T23:57:50.130Z,1.52
